x

9442396 - La Push, Wa (lapw1) Weather Station

1:30 - Wed 29th Jun 2016 All times are PDT. -7 hours from GMT.

  • Wind
    2mph, 5mph gusts
  • Sea Temp 56°f
  • Aire Temp 55°f
  • Sea Pressure 1023.4mb
  • 9442396 - La Push, Wa
  • 9442396 - La Push, Wa

More Historic Weather Station data

Upgrade to MSW Pro to gain access to the past 30 days of data for over 8000 Wavebouys and Weather Stations around the globe.

Join Pro

Comparision Forecast

View Surf forecast
   
mié 06/29 1:30 2 5 mph 1023.4mb 56f 55f
1:24 1 2 mph 1023.4mb 56f 55f
1:18 2 5 mph 1023.4mb 56f 55f
1:12 2 5 mph 1023.3mb 55f 55f
1:06 2 5 mph 1023.3mb 55f 55f
1:00 2 5 mph 1023.3mb 53f 55f
12:36 2 3 mph 1023.4mb 49f 55f
12:30 2
mph
1023.3mb 49f 55f
12:24  -  2 mph 1023.3mb 49f 55f
12:18 1 3 mph 1023.2mb 48f 55f
12:12 2 5 mph 1023.2mb 48f 56f
12:06 1 6 mph 1023.3mb 48f 56f
12:00 5 6 mph 1023.3mb 48f 55f
mar 06/28 11:36 2 3 mph 1023.4mb 48f 55f
11:30 2 3 mph 1023.4mb 48f 55f
11:24 3 5 mph 1023.4mb 48f 55f
11:18 3 6 mph 1023.4mb 48f 55f
11:12 3 6 mph 1023.4mb 48f 55f
11:06 5 7 mph 1023.5mb 48f 55f
11:00 5 6 mph 1023.5mb 47f 55f
10:36 6 8 mph 1023.6mb 47f 55f
10:30 6 8 mph 1023.6mb 47f 55f
10:24 5 8 mph 1023.6mb 47f 55f
10:18 5 6 mph 1023.5mb 47f 55f
10:12 6 8 mph 1023.5mb 47f 55f
10:06 5 6 mph 1023.5mb 47f 55f
10:00 3 5 mph 1023.5mb 47f 55f
9:36 5 6 mph 1023.4mb 47f 55f
9:30 6 7 mph 1023.4mb 47f 54f
9:24 3 5 mph 1023.3mb 47f 54f
9:18 5 6 mph 1023.3mb 47f 55f
9:12 6 7 mph 1023.4mb 48f 54f
9:06 5 6 mph 1023.3mb 48f 54f
9:00 5 7 mph 1023.3mb 48f 55f
8:36 9 11 mph 1023.4mb 48f 54f
8:30 9 10 mph 1023.4mb 48f 54f
8:24 7 9 mph 1023.3mb 48f 55f
8:18 7 10 mph 1023.3mb 48f 54f
8:12 8 10 mph 1023.3mb 48f 54f
8:06 9 11 mph 1023.3mb 48f 54f
8:00 9 10 mph 1023.3mb 48f 55f
7:36 7 8 mph 1023.2mb 48f 55f
7:30 6 8 mph 1023.1mb 49f 55f
7:24 6 7 mph 1023.1mb 48f 55f
7:18 7 8 mph 1023.1mb 48f 55f
7:12 6 7 mph 1023mb 48f 55f
7:06 6 7 mph 1023mb 48f 55f
7:00 6 7 mph 1023.1mb 47f 55f
6:36  -  mph 1023.1mb 47f 55f
6:30  -  mph 1023.1mb 48f 55f
6:24  -  mph 1023.1mb 48f 55f
6:18  -  mph 1023.1mb 48f 55f
6:12  -  mph 1023.1mb 48f 55f
6:06  -  mph 1023.1mb 48f 55f
6:00  -  mph 1023.1mb 48f 55f
5:36 6 7 mph 1023.3mb 49f 55f
5:30 6
mph
1023.2mb 48f 55f
5:24 3 5 mph 1023.2mb 48f 55f
5:18 3 6 mph 1023.3mb 48f 56f
5:12 3 5 mph 1023.3mb 48f 56f
5:06 3 5 mph 1023.4mb 48f 56f
5:00 3 6 mph 1023.4mb 48f 56f
4:36  -  mph 1023.6mb 48f 56f
4:30  -  mph 1023.7mb 48f 56f
4:24  -  mph 1023.7mb 48f 56f
4:18  -  mph 1023.8mb 48f 56f
4:12  -  mph 1023.8mb 48f 56f
4:06  -  mph 1023.8mb 47f 56f
4:00  -  mph 1023.9mb 47f 56f
3:36  -  mph 1024.1mb - 56f
3:30  -  mph 1024.2mb - 56f
3:24  -  mph 1024.2mb - 56f
3:18  -  mph 1024.2mb - 55f
3:12  -  mph 1024.3mb - 56f
3:06  -  mph 1024.3mb - 56f
3:00  -  mph 1024.3mb - 55f
2:36 6 7 mph 1024.3mb 48f 56f
2:30 5 6 mph 1024.3mb 49f 55f
2:24 5 6 mph 1024.3mb 49f 55f
2:18 5 6 mph 1024.3mb 49f 56f
2:12 5 6 mph 1024.4mb 49f 56f
2:06 5 7 mph 1024.4mb 50f 56f
2:00 5 7 mph 1024.4mb 50f 56f
1:36 6 8 mph 1024.4mb 51f 56f
1:30 6 7 mph 1024.3mb 52f 56f
1:24 6 9 mph 1024.3mb 52f 56f
1:18 6 7 mph 1024.3mb 53f 56f
1:12 6 7 mph 1024.3mb 53f 56f
1:06 6 8 mph 1024.4mb 54f 56f
1:00 6 8 mph 1024.3mb 54f 56f
12:36 6 8 mph 1024.4mb 55f 56f
12:30 7 8 mph 1024.4mb 54f 56f
12:24 5 6 mph 1024.4mb 53f 56f
12:18 5 6 mph 1024.4mb 53f 56f
12:12 3 5 mph 1024.3mb 53f 56f
12:06 3 6 mph 1024.3mb 52f 56f
12:00 2 5 mph 1024.3mb 51f 55f
11:36 2 3 mph 1024.3mb 49f 55f
11:30 2
mph
1024.3mb 49f 55f
11:24 1 2 mph 1024.3mb 49f 55f
11:18 2 3 mph 1024.3mb 48f 55f
11:12 2 3 mph 1024.3mb 48f 55f
11:06 2
mph
1024.2mb 48f 55f
11:00 2
mph
1024.2mb 48f 55f
10:36 1
mph
1024.2mb 48f 55f
10:30 1 2 mph 1024.2mb 48f 55f
10:24 1 2 mph 1024.3mb 48f 55f
10:18 1 2 mph 1024.3mb 48f 55f
10:12  -  2 mph 1024.3mb 48f 55f
10:06  -  2 mph 1024.3mb 48f 55f
10:00  -  1 mph 1024.4mb 48f 55f
9:36 1 2 mph 1024.5mb 47f 54f
9:30 1
mph
1024.4mb 47f 54f
9:24  -  1 mph 1024.4mb 47f 54f
9:18 2
mph
1024.4mb 47f 55f
9:12  -  1 mph 1024.4mb 47f 54f
9:06  -  1 mph 1024.5mb 47f 54f
9:00 1
mph
1024.5mb 47f 54f
8:36 2
mph
1024.4mb 48f 54f
8:30  -  1 mph 1024.3mb 48f 54f
8:24  -  2 mph 1024.4mb 48f 54f
8:18 2
mph
1024.3mb 48f 54f
8:12  -  1 mph 1024.3mb 48f 54f
8:06  -  2 mph 1024.3mb 48f 54f
8:00 2
mph
1024.3mb 48f 54f
7:36 2 3 mph 1024.1mb 48f 53f
7:30 3 5 mph 1024.1mb 48f 53f
7:24 5 6 mph 1024.1mb 48f 53f
7:18 2 3 mph 1024.2mb 48f 53f
7:12  -  2 mph 1024.1mb 48f 53f
7:06 2
mph
1024.1mb 49f 53f
7:00 1 5 mph 1024.1mb 49f 53f
6:36  -  2 mph 1024.1mb 49f 53f
6:30 2 3 mph 1024.1mb 49f 53f
6:24 3 5 mph 1024mb 49f 54f
6:18 3
mph
1024mb 49f 54f
6:12 3 5 mph 1024mb 49f 54f
6:06 2
mph
1023.9mb 49f 54f
6:00 2
mph
1023.8mb 49f 54f
5:36 1 2 mph 1023.8mb 49f 54f
5:30 1 2 mph 1023.8mb 49f 54f
5:24 2
mph
1023.8mb 49f 54f
5:18 2 3 mph 1023.8mb 49f 54f
5:12 2 3 mph 1023.7mb 49f 54f
5:06 1 2 mph 1023.7mb 49f 54f
5:00 1 2 mph 1023.6mb 49f 54f
4:36 1 2 mph 1023.7mb 48f 54f
4:30  -  2 mph 1023.7mb 48f 54f
4:24 1 2 mph 1023.7mb 48f 54f
4:18  -  2 mph 1023.7mb 48f 54f
4:12  -  2 mph 1023.8mb 48f 54f
4:06 2 3 mph 1023.8mb 48f 54f
4:00 1 2 mph 1023.8mb 48f 54f
3:36 1 2 mph 1023.7mb 48f 54f
3:30 2
mph
1023.7mb 48f 54f
3:24 1 2 mph 1023.7mb 48f 54f
3:18 2 3 mph 1023.8mb 48f 54f
3:12 1 3 mph 1023.7mb 49f 54f
3:06 3
mph
1023.7mb 49f 54f
3:00 2 5 mph 1023.7mb 49f 54f
2:36 3 5 mph 1023.7mb 49f 54f
2:30 2
mph
1023.7mb 50f 54f
2:24 2 5 mph 1023.7mb 50f 54f
2:18 3
mph
1023.7mb 51f 54f
2:12 1 2 mph 1023.7mb 51f 54f
2:06 2 3 mph 1023.7mb 51f 54f
2:00 2 3 mph 1023.7mb 52f 55f
1:54 2
mph
1023.7mb 53f 55f
1:48 2
mph
1023.7mb 54f 55f
1:36 1 3 mph 1023.6mb 54f 55f
1:30 2 3 mph 1023.6mb 54f 55f
1:24  -  2 mph 1023.6mb 54f 55f
1:18  -  2 mph 1023.6mb 55f 55f
1:12 1 2 mph 1023.7mb 55f 55f
1:06 2 3 mph 1023.7mb 56f 55f
1:00  -  2 mph 1023.8mb 57f 55f
12:54 2 3 mph 1023.8mb 57f 55f
12:48 1 2 mph 1023.8mb 56f 55f
12:36 2 3 mph 1023.9mb 56f 55f
12:30 2
mph
1023.9mb 55f 55f
12:24 1 2 mph 1023.9mb 55f 55f
12:18 1 2 mph 1023.9mb 54f 55f
12:12 1 2 mph 1023.8mb 53f 55f
12:06 1 2 mph 1023.8mb 52f 55f
12:00 2 3 mph 1023.9mb 52f 55f
lun 06/27 11:54 2 3 mph 1023.9mb 51f 55f
11:48 3 6 mph 1023.8mb 51f 55f
11:36 2 3 mph 1023.9mb 49f 55f
11:30 3
mph
1024mb 49f 55f
11:24 2
mph
1024mb 49f 55f
11:18 2 5 mph 1024mb 49f 55f
11:12 2 3 mph 1024mb 48f 55f
11:06 3 5 mph 1024.1mb 48f 55f
11:00 2 3 mph 1024.1mb 48f 55f
10:54 2 3 mph 1024.1mb 48f 55f
10:48 2 3 mph 1024.1mb 48f 55f
10:36 3 5 mph 1024.1mb 48f 55f
10:30 2 5 mph 1024.1mb 48f 55f
10:24 3 5 mph 1024.1mb 48f 55f
10:18 3
mph
1024.1mb 48f 55f
10:12 3 6 mph 1024.1mb 48f 55f
10:06 5 6 mph 1024mb 48f 55f
10:00 3 6 mph 1023.9mb 47f 55f
9:54 6 8 mph 1023.9mb 48f 55f
9:48 6 7 mph 1023.9mb 48f 55f
9:36 6 7 mph 1023.9mb 48f 55f
9:30 6
mph
1023.9mb 48f 55f
9:24 5 7 mph 1023.8mb 48f 55f
9:18 5 7 mph 1023.8mb 48f 55f
9:12 6 8 mph 1023.9mb 48f 55f
9:06 6 8 mph 1023.8mb 48f 55f
9:00 6 9 mph 1023.8mb 48f 55f
8:54 7 9 mph 1023.8mb 48f 55f
8:48 6 8 mph 1023.8mb 48f 55f
8:36 9
mph
1023.8mb 48f 55f
8:30 6 8 mph 1023.8mb 48f 55f
8:24 7 8 mph 1023.8mb 48f 55f
8:18 6 9 mph 1023.9mb 48f 55f
8:12 9 11 mph 1023.9mb 48f 55f
8:06 8 10 mph 1023.9mb 48f 55f
8:00 8 9 mph 1023.9mb 48f 55f
7:54 8 10 mph 1023.9mb 48f 55f
7:48 7 10 mph 1023.8mb 48f 55f
7:36 6 7 mph 1023.7mb 48f 55f
7:30 5 7 mph 1023.6mb 48f 55f
7:24 7 9 mph 1023.6mb 48f 55f
7:18 8 9 mph 1023.7mb 48f 55f
7:12 6 8 mph 1023.7mb 48f 55f
7:06 6 7 mph 1023.6mb 48f 55f
7:00 6 7 mph 1023.6mb 48f 55f
6:54 6 10 mph 1023.5mb 48f 55f
6:48 7 9 mph 1023.5mb 48f 55f
6:36 8 10 mph 1023.5mb 48f 55f
6:30 6 8 mph 1023.5mb 48f 55f
6:24 6 9 mph 1023.5mb 48f 55f
6:18 6 10 mph 1023.6mb 48f 55f
6:12 8 10 mph 1023.6mb 48f 55f
6:06 6 9 mph 1023.6mb 48f 55f
6:00 7 9 mph 1023.7mb 48f 55f
5:54 7 8 mph 1023.7mb 48f 56f
5:48 7 9 mph 1023.7mb 48f 56f
5:36 8 9 mph 1023.8mb 48f 55f
5:30 6 8 mph 1023.8mb 48f 55f
5:24 7 8 mph 1023.8mb 48f 55f
5:18 7 8 mph 1023.9mb 48f 55f
5:12 6 8 mph 1023.9mb 48f 56f
5:06 7 8 mph 1024mb 48f 56f
5:00 6 8 mph 1024mb 48f 55f
4:54 6 7 mph 1024mb 48f 55f
4:48 6 8 mph 1024mb 48f 55f
4:36  -  mph 1024mb 48f 55f
4:30  -  mph 1024mb 48f 55f
4:24  -  mph 1024.1mb 48f 55f
4:18  -  mph 1024.1mb 48f 55f
4:12  -  mph 1024mb 48f 55f
4:06  -  mph 1024mb 48f 55f
4:00  -  mph 1024mb 48f 55f
3:54  -  mph 1024mb 48f 55f
3:48  -  mph 1024mb 48f 55f
3:36  -  mph 1023.9mb 48f 56f
3:30  -  mph 1023.9mb 48f 55f
3:24  -  mph 1023.9mb 48f 56f
3:18  -  mph 1023.9mb 48f 56f
3:12  -  mph 1023.9mb 48f 56f
3:06  -  mph 1023.9mb 47f 56f
3:00  -  mph 1023.8mb 47f 56f
2:54  -  mph 1023.8mb 48f 56f
2:48  -  mph 1023.9mb 48f 56f
2:36 8 9 mph 1023.9mb 48f 56f
2:30 8 9 mph 1023.9mb 48f 56f
2:24 7 9 mph 1023.9mb 48f 56f
2:18 7 9 mph 1023.9mb 49f 56f
2:12 7 9 mph 1023.9mb 49f 56f
2:06 6 8 mph 1023.9mb 49f 56f
2:00 6 8 mph 1023.9mb 49f 56f
1:54 7 9 mph 1023.9mb 50f 56f
1:48 7 9 mph 1023.9mb 50f 56f
1:36 6 8 mph 1023.9mb 51f 56f
1:30 6 8 mph 1023.8mb 52f 56f
1:24 6 8 mph 1023.8mb 53f 56f
1:18 6 7 mph 1023.8mb 53f 56f
1:12 6 8 mph 1023.8mb 54f 56f
1:06 6 8 mph 1023.8mb 55f 56f
1:00 6 8 mph 1023.7mb 56f 56f
12:54 6 8 mph 1023.7mb 56f 56f
12:48 6 8 mph 1023.7mb 56f 56f
12:36 6 8 mph 1023.7mb 56f 56f
12:30 6 7 mph 1023.6mb 56f 56f
12:24 6 7 mph 1023.5mb 57f 56f
12:18 5 6 mph 1023.5mb 57f 56f
12:12 5 6 mph 1023.5mb 57f 56f
12:06 6 7 mph 1023.4mb 58f 56f
12:00 5 6 mph 1023.4mb 58f 56f
11:54 3 6 mph 1023.3mb 58f 56f
11:48 5 6 mph 1023.3mb 58f 55f
11:36 3 5 mph 1023.2mb 56f 55f
11:30 2 3 mph 1023.2mb 57f 55f
11:24 2 3 mph 1023.2mb 57f 55f
11:18 2 3 mph 1023.2mb 57f 55f
11:12 3 5 mph 1023.1mb 57f 55f
11:06 3 5 mph 1023.2mb 57f 55f
11:00 2 3 mph 1023.1mb 57f 55f
10:54 2 3 mph 1023.1mb 57f 55f
10:48 3 5 mph 1023.1mb 57f 55f
10:36 3 6 mph 1023mb 56f 55f
10:30 3 6 mph 1023mb 55f 55f
10:24 3 5 mph 1023mb 55f 55f
10:18 5 6 mph 1023mb 54f 55f
10:12 5 6 mph 1023mb 53f 55f
10:06 5
mph
1023mb 52f 55f
10:00 3 5 mph 1023mb 52f 55f
9:54 3 5 mph 1023mb 52f 55f
9:48 3
mph
1022.9mb 51f 55f
9:36 3
mph
1022.9mb 49f 55f
9:30 3
mph
1022.9mb 48f 55f
9:24 2 3 mph 1022.8mb 48f 55f
9:18 2 3 mph 1022.8mb 48f 55f
9:12 2 3 mph 1022.8mb 48f 55f
9:06 2 3 mph 1022.7mb 48f 55f
9:00 2 3 mph 1022.7mb 48f 55f
8:54 2 3 mph 1022.8mb 48f 55f
8:48 3 5 mph 1022.7mb 49f 55f
8:36 3
mph
1022.6mb 48f 55f
8:30 2
mph
1022.6mb 48f 55f
8:24 2 3 mph 1022.5mb 48f 55f
8:18 2 3 mph 1022.5mb 48f 55f
8:12 2 3 mph 1022.4mb 48f 55f
8:06 2 3 mph 1022.4mb 48f 55f
8:00 2 3 mph 1022.4mb 48f 55f
7:54 3 5 mph 1022.4mb 49f 55f
7:48 2 3 mph 1022.4mb 49f 55f
7:36 2 3 mph 1022.4mb 48f 55f
7:30 2 3 mph 1022.3mb 49f 55f
7:24 2 3 mph 1022.3mb 48f 55f
7:18 2 3 mph 1022.2mb 48f 55f
7:12 2 3 mph 1022.2mb 49f 55f
7:06 2 3 mph 1022.2mb 49f 55f
7:00 2 3 mph 1022.2mb 49f 55f
6:54 2 3 mph 1022.2mb 49f 55f
6:48 2
mph
1022.1mb 49f 55f
6:36 3 5 mph 1022.1mb 49f 55f
6:30 2 5 mph 1022mb 49f 55f
6:24 3 5 mph 1022mb 49f 55f
6:18 5 6 mph 1022mb 49f 55f
6:12 5 6 mph 1022mb 49f 55f
6:06 5 6 mph 1021.9mb 49f 55f
6:00 2 5 mph 1021.9mb 49f 55f
5:54 5 6 mph 1021.9mb 49f 55f
5:48 5 6 mph 1021.8mb 49f 55f
5:36 6 7 mph 1021.7mb 50f 55f
5:30 6
mph
1021.7mb 50f 55f
5:24 5 7 mph 1021.6mb 50f 55f
5:18 5 6 mph 1021.6mb 49f 55f
5:12 5 6 mph 1021.6mb 49f 55f
5:06 5 7 mph 1021.6mb 50f 55f
5:00 6 7 mph 1021.6mb 50f 55f
4:54 6
mph
1021.6mb 50f 55f
4:48 5 6 mph 1021.6mb 50f 55f
4:36 6 8 mph 1021.4mb 51f 55f
4:30 7 8 mph 1021.4mb 51f 55f
4:24 7 10 mph 1021.4mb 51f 55f
4:18 8 10 mph 1021.4mb 51f 55f
4:12 6 8 mph 1021.3mb 51f 55f
4:06 8 10 mph 1021.4mb 51f 55f
4:00 7 8 mph 1021.3mb 51f 55f
3:54 7 9 mph 1021.2mb 51f 56f
3:48 8 10 mph 1021.3mb 51f 55f
3:36 8 9 mph 1021.5mb 51f 56f
3:30 7 8 mph 1021.4mb 51f 55f
3:24 7 8 mph 1021.4mb 51f 56f
3:18 6 7 mph 1021.4mb 51f 56f
3:12 6 8 mph 1021.4mb 51f 55f
3:06 7
mph
1021.4mb 51f 56f
3:00 7 8 mph 1021.3mb 51f 55f
2:54 6 8 mph 1021.3mb 51f 55f
2:48 7 10 mph 1021.3mb 52f 55f
2:36 7 9 mph 1021.4mb 52f 55f
2:30 7 8 mph 1021.5mb 52f 55f
2:24 7 9 mph 1021.5mb 52f 56f
2:18 7 8 mph 1021.4mb 52f 55f
2:12 7 9 mph 1021.4mb 52f 55f
2:06 6 7 mph 1021.4mb 52f 55f
2:00 5 8 mph 1021.3mb 53f 55f
1:54 6 7 mph 1021.3mb 53f 55f
1:48 2 3 mph 1021.3mb 53f 55f
1:36  -  1 mph 1021.2mb 54f 54f
1:30  -  mph 1021.3mb 54f 54f
1:24  -  1 mph 1021.3mb 54f 54f
1:18  -  2 mph 1021.2mb 55f 55f
1:12  -  1 mph 1021.3mb 55f 54f
1:06  -  1 mph 1021.4mb 55f 55f
1:00 1 2 mph 1021.3mb 55f 54f
12:54 2
mph
1021.4mb 55f 55f
12:48 2
mph
1021.3mb 56f 55f
12:36 2 6 mph 1021.3mb 56f 55f
12:30 3 7 mph 1021.3mb 57f 55f
12:24 5 7 mph 1021.3mb 57f 55f
12:18 5 8 mph 1021.3mb 58f 55f
12:12 6 7 mph 1021.2mb 57f 54f
12:06 7 8 mph 1021.2mb 58f 55f
12:00 5 7 mph 1021.2mb 58f 54f
dom 06/26 11:54 7 8 mph 1021.1mb 58f 55f
11:48 6 9 mph 1021.1mb 58f 55f
11:36 6 8 mph 1021.1mb 59f 56f
11:30 5 8 mph 1021mb 59f 56f
11:24 6 9 mph 1021mb 59f 56f
11:18 6 10 mph 1021mb 59f 56f
11:12 9 13 mph 1021mb 59f 56f
11:06 10 13 mph 1021.1mb 59f 56f
11:00 9 13 mph 1021.1mb 58f 56f
10:54 9 13 mph 1021.2mb 58f 56f
10:48 9 11 mph 1021.2mb 57f 56f
10:36 10 13 mph 1021.3mb 55f 56f
10:30 9 11 mph 1021.2mb 55f 57f
10:24 8 10 mph 1021.2mb 55f 58f
10:18 9 13 mph 1021.1mb 54f 58f
10:12 10 13 mph 1021.2mb 54f 58f
10:06 11 15 mph 1021.1mb 53f 58f
10:00 10 14 mph 1021mb 53f 58f
9:54 10 13 mph 1021mb 53f 58f
9:48 11 14 mph 1021mb 53f 58f
9:36 11 13 mph 1020.9mb 53f 59f
9:30 10 13 mph 1020.9mb 52f 59f
9:24 11 14 mph 1020.9mb 52f 61f
9:18 11 13 mph 1020.9mb 51f 61f
9:12 10 15 mph 1020.9mb 51f 62f
9:06 14 16 mph 1020.9mb 51f 62f
9:00 14 17 mph 1020.8mb 51f 62f
8:54 14 16 mph 1020.9mb 50f 62f
8:48 14 20 mph 1020.9mb 50f 62f
8:36 15 21 mph 1020.9mb 50f 62f
8:30 15 17 mph 1021mb 50f 61f
8:24 14 20 mph 1021.1mb 50f 61f
8:18 15 18 mph 1021.2mb 50f 60f
8:12 15 20 mph 1021.2mb 50f 61f
8:06 16 22 mph 1021.2mb 50f 60f
8:00 17 20 mph 1021.2mb 51f 60f
7:54 17 21 mph 1021.2mb 51f 60f
7:48 17 21 mph 1021.2mb 51f 60f
7:36 17 22 mph 1021.3mb 51f 59f
7:30 18 22 mph 1021.3mb 51f 59f
7:24 18 22 mph 1021.3mb 51f 59f
7:18 17 23 mph 1021.3mb 51f 59f
7:12 20 23 mph 1021.4mb 51f 59f
7:06 21 24 mph 1021.3mb 51f 59f
7:00 20 23 mph 1021.4mb 51f 58f
6:54 20 24 mph 1021.4mb 51f 58f
6:48 21 23 mph 1021.4mb 51f 58f
6:36 21 24 mph - 51f 58f
6:30 21 26 mph - 51f 58f
6:24 21 25 mph - 51f 57f
6:18 22 26 mph - 51f 57f
6:12 21 25 mph - 51f 57f
6:06 22 25 mph - 51f 58f
6:00 21 25 mph - 51f 57f
5:54 22 26 mph - 51f 57f
5:48 22 25 mph - 51f 57f
5:36  -  mph 1021.7mb 51f 56f
5:30  -  mph 1021.7mb 51f 57f
5:24  -  mph 1021.7mb 51f 57f
5:18  -  mph 1021.7mb 51f 58f
5:12  -  mph 1021.7mb 51f 58f
5:06  -  mph 1021.7mb 51f 58f
5:00  -  mph 1021.7mb 51f 58f
4:36  -  mph - 51f 58f
4:30  -  mph - 51f 57f
4:24  -  mph - 51f 57f
4:18  -  mph - 51f 57f
4:12  -  mph - 51f 57f
4:06  -  mph - 51f 56f
4:00  -  mph - 52f 56f
3:54  -  mph - 52f 55f
3:48  -  mph - 52f 55f
3:36 22 25 mph 1022.3mb 52f 55f
3:30 22 25 mph 1022.4mb 52f 55f
3:24 22 25 mph 1022.5mb 53f 55f
3:18 22 25 mph 1022.4mb 53f 55f
3:12 23 25 mph 1022.6mb 53f 55f
3:06 22 25 mph 1022.6mb 53f 55f
3:00 20 25 mph 1022.6mb 53f 55f
2:54 20 23 mph 1022.7mb 53f 55f
2:48 20 25 mph 1022.7mb 53f 55f
2:36 23 25 mph 1022.7mb 53f 55f
2:30 22 26 mph 1022.7mb 53f 55f
2:24 22 25 mph 1022.7mb 53f 55f
2:18 22 26 mph 1022.7mb 53f 55f
2:12 22 26 mph 1022.6mb 53f 55f
2:06 21 26 mph 1022.7mb 54f 55f
2:00 21 26 mph 1022.7mb 54f 55f
1:54 24 28 mph 1022.7mb 54f 55f
1:48 23 25 mph 1022.8mb 54f 55f
1:36 21 24 mph 1022.8mb 54f 55f
1:30 20 23 mph 1022.9mb 54f 55f
1:24 20 22 mph 1022.8mb 54f 55f
1:18 18 24 mph 1022.8mb 55f 56f
1:12 21 24 mph 1022.8mb 55f 56f
1:06 21 24 mph 1022.9mb 55f 56f
1:00 21 24 mph 1022.8mb 55f 56f
12:54 17 21 mph 1022.8mb 56f 56f
12:48 15 18 mph 1022.8mb 56f 56f
12:36 10 15 mph 1023mb 56f 56f
12:30 14 18 mph 1023.1mb 57f 56f
12:24 14 17 mph 1023.2mb 57f 56f
12:18 15 17 mph 1023mb 57f 56f
12:12 11 14 mph 1023.1mb 57f 56f
12:06 10 13 mph 1023mb 57f 55f
12:00 8 10 mph 1023mb 57f 55f
11:54 8 10 mph 1023mb 57f 55f
11:48 7 8 mph 1023mb 57f 55f
11:36 5 7 mph 1023.2mb 57f 55f
11:30 5 7 mph 1023.2mb 57f 54f
11:24 7 8 mph 1023.2mb 57f 54f
11:18 7 8 mph 1023.2mb 57f 53f
11:12 7 8 mph 1023.2mb 57f 53f
11:06 6 8 mph 1023.2mb 57f 53f
11:00 7 8 mph 1023.3mb 57f 53f
10:54 6 7 mph 1023.4mb 57f 52f
10:48 6
mph
1023.4mb 57f 52f
10:36 5 6 mph 1023.4mb 57f 52f
10:30 5 6 mph 1023.5mb 57f 52f
10:24 6 7 mph 1023.5mb 57f 53f
10:18 5 7 mph 1023.5mb 57f 53f
10:12 5 6 mph 1023.6mb 57f 52f
10:06 5 6 mph 1023.6mb 57f 52f
10:00 5 6 mph 1023.6mb 57f 52f
9:54 6
mph
1023.6mb 57f 52f
9:48 6
mph
1023.6mb 57f 53f
9:36 5 6 mph 1023.7mb 57f 53f
9:30 3 5 mph 1023.6mb 57f 53f
9:24 3 6 mph 1023.6mb 57f 53f
9:18 6
mph
1023.7mb 56f 53f
9:12 3 5 mph 1023.7mb 56f 53f
9:06 5 6 mph 1023.7mb 56f 53f
9:00 3 5 mph 1023.6mb 56f 53f
8:54 3 5 mph 1023.6mb 55f 53f
8:48 3 6 mph 1023.6mb 55f 53f
8:36 6 7 mph 1023.5mb 54f 53f
8:30 6
mph
1023.5mb 53f 53f
8:24 5 6 mph 1023.6mb 53f 53f
8:18 5
mph
1023.6mb 53f 53f
8:12 5
mph
1023.5mb 53f 53f
8:06 3 5 mph 1023.6mb 53f 53f
8:00 3 5 mph 1023.5mb 53f 53f
7:54 3 5 mph 1023.5mb 53f 53f
7:48 3
mph
1023.6mb 53f 53f
7:36 2 3 mph 1023.7mb 53f 53f
7:30 3
mph
1023.6mb 52f 53f
7:24 2 5 mph 1023.6mb 53f 53f
7:18 2 6 mph 1023.5mb 53f 53f
7:12  -  2 mph 1023.5mb 53f 53f
7:06 2 5 mph 1023.5mb 53f 53f
7:00 3 6 mph 1023.4mb 53f 53f
6:54 3 6 mph 1023.4mb 53f 53f
6:48 5 6 mph 1023.3mb 53f 53f
6:36 3 6 mph 1023.3mb 53f 53f
6:30 2 5 mph 1023.4mb 53f 53f
6:24 5 6 mph 1023.4mb 53f 53f
6:18 5 6 mph 1023.5mb 53f 53f
6:12 5
mph
1023.4mb 53f 53f
6:06 5
mph
1023.5mb 53f 53f
6:00 3 6 mph 1023.5mb 53f 53f
5:54 5 6 mph 1023.5mb 53f 53f
5:48 5 6 mph 1023.5mb 53f 53f
5:36 5 6 mph 1023.6mb 53f 53f
5:30 5 6 mph 1023.6mb 53f 53f
5:24 5 6 mph 1023.6mb 53f 53f
5:18 6
mph
1023.6mb 53f 53f
5:12 3 6 mph 1023.6mb 53f 53f
5:06 5 6 mph 1023.7mb 53f 53f
5:00 5 6 mph 1023.6mb 53f 53f
4:54 3 5 mph 1023.6mb 53f 53f
4:48 5 7 mph 1023.6mb 53f 53f
4:36 7 8 mph 1023.6mb 53f 54f
4:30 8 9 mph 1023.7mb 53f 54f
4:24 8 9 mph 1023.7mb 53f 54f
4:18 7 8 mph 1023.7mb 53f 54f
4:12 8 10 mph 1023.7mb 53f 54f
4:06 9 11 mph 1023.8mb 53f 54f
4:00 9 11 mph 1023.8mb 53f 54f
3:54 9 11 mph 1023.8mb 54f 54f
3:48 9 10 mph 1023.8mb 54f 54f
3:36 8 9 mph 1023.7mb 54f 54f
3:30 8 10 mph 1023.8mb 54f 54f
3:24 8 11 mph 1023.8mb 54f 54f
3:18 9 10 mph 1023.8mb 53f 54f
3:12 9 10 mph 1023.8mb 53f 55f
3:06 9 10 mph 1023.8mb 53f 55f
3:00 8 9 mph 1023.8mb 53f 55f
2:54 7 8 mph 1023.8mb 53f 55f
2:48 7 8 mph 1023.9mb 53f 55f
2:36 6 8 mph 1023.9mb 53f 55f
2:30 5 7 mph 1023.9mb 53f 55f
2:24 6 9 mph 1023.9mb 53f 55f
2:18 6 8 mph 1024mb 53f 55f
2:12 6 8 mph 1024mb 53f 56f
2:06 6 9 mph 1024mb 53f 56f
2:00 6 8 mph 1024.1mb 53f 56f
1:54 5 8 mph 1024.2mb 53f 56f
1:48 6 8 mph 1024.2mb 53f 56f
1:36 5 9 mph 1024.2mb 53f 56f
1:30 6 10 mph 1024.2mb 53f 56f
1:24 6 7 mph 1024.3mb 53f 56f
1:18 5 7 mph 1024.3mb 53f 56f
1:12 6 9 mph 1024.3mb 53f 56f
1:06 6 8 mph 1024.4mb 53f 56f
1:00 3 8 mph 1024.4mb 53f 56f
12:54 6 8 mph 1024.5mb 53f 56f
12:48 2 7 mph 1024.5mb 53f 56f
12:36 7 14 mph 1024.5mb 54f 56f
12:30 5 14 mph 1024.6mb 54f 56f
12:24 6 10 mph 1024.6mb 54f 56f
12:18 6 13 mph 1024.6mb 54f 56f
12:12 3 7 mph 1024.6mb 54f 56f
12:06 5 8 mph 1024.6mb 54f 56f
12:00 3 7 mph 1024.7mb 55f 56f
sáb 06/25 11:54 6 11 mph 1024.7mb 55f 56f
11:48 3 6 mph 1024.7mb 55f 56f
11:36 6 10 mph 1024.6mb 55f 56f
11:30 8 11 mph 1024.7mb 56f 56f
11:24 7 8 mph 1024.7mb 56f 56f
11:18 6 7 mph 1024.7mb 56f 56f
11:12 5 7 mph 1024.7mb 56f 55f
11:06 1 8 mph 1024.8mb 57f 55f
11:00 3 5 mph 1024.8mb 57f 55f
10:54 3 7 mph 1024.8mb 57f 55f
10:48 3 6 mph 1024.9mb 57f 55f
10:36 2 3 mph 1024.9mb 57f 55f
10:30 2 5 mph 1024.9mb 57f 55f
10:24 1 6 mph 1024.9mb 56f 56f
10:18 3 6 mph 1024.8mb 56f 55f
10:12 2 5 mph 1024.8mb 56f 56f
10:06 5 8 mph 1024.8mb 56f 56f
10:00 2 6 mph 1024.8mb 56f 56f
9:54 7 11 mph 1024.8mb 55f 56f
9:48 7 8 mph 1024.8mb 55f 56f
9:36 3 6 mph 1024.6mb 55f 56f
9:30 5 7 mph 1024.6mb 54f 56f
9:24 3 6 mph 1024.6mb 54f 57f
9:18 5 8 mph 1024.5mb 54f 57f
9:12 6 9 mph 1024.5mb 54f 57f
9:06 8 10 mph 1024.5mb 54f 57f
9:00 8 10 mph 1024.5mb 54f 57f
8:54 9 13 mph 1024.4mb 54f 57f
8:48 8 9 mph 1024.4mb 53f 57f
8:36 8 10 mph 1024.3mb 53f 57f
8:30 9 14 mph 1024.3mb 53f 57f
8:24 10 14 mph 1024.4mb 53f 57f
8:18 10 17 mph 1024.4mb 53f 57f
8:12 13 17 mph 1024.4mb 53f 58f
8:06 8 14 mph 1024.4mb 53f 57f
8:00 11 15 mph 1024.5mb 53f 57f
7:54 13 16 mph 1024.5mb 53f 57f
7:48 14 20 mph 1024.6mb 53f 57f
7:36 14 20 mph 1024.5mb 53f 57f
7:30 15 21 mph 1024.6mb 53f 56f
7:24 17 21 mph 1024.7mb 53f 56f
7:18 16 20 mph 1024.8mb 53f 56f
7:12 17 21 mph 1024.9mb 53f 56f
7:06 17 20 mph 1024.9mb 53f 56f
7:00 17 21 mph 1024.9mb 53f 56f
6:54 17 20 mph 1024.9mb 53f 57f
6:48 17 22 mph 1024.9mb 53f 56f
6:36  -  mph 1025mb 53f 56f
6:30  -  mph 1025mb 53f 56f
6:24  -  mph 1025.1mb 53f 56f
6:18  -  mph 1025.1mb 53f 56f
6:12  -  mph 1025.2mb 53f 56f
6:06  -  mph 1025.2mb 53f 56f
6:00  -  mph 1025.3mb 53f 56f
5:54  -  mph 1025.4mb 53f 56f
5:48  -  mph 1025.5mb 53f 56f
5:36 14 18 mph 1025.6mb 53f 56f
5:30 16 18 mph 1025.7mb 53f 56f
5:24 15 17 mph 1025.7mb 53f 56f
5:18 14 16 mph 1025.7mb 53f 57f
5:12 14 16 mph 1025.8mb 53f 57f
5:06 13 15 mph 1025.8mb 53f 57f
5:00 13 14 mph 1025.8mb 53f 57f
4:54 11 13 mph 1025.8mb 53f 57f
4:48 11 13 mph 1025.8mb 53f 56f
4:36  -  mph 1025.8mb - 56f
4:30  -  mph 1025.9mb - 57f
4:24  -  mph 1026mb - 57f
4:18  -  mph 1026mb - 57f
4:12  -  mph 1026.1mb - 57f
4:06  -  mph 1026.1mb - 57f
4:00  -  mph 1026.1mb - 57f
3:54  -  mph 1026.1mb - 57f
3:48  -  mph 1026.1mb - 57f
3:36 13 15 mph 1026.2mb 53f 57f
3:30 11 14 mph 1026.2mb 53f 57f
3:24 13 15 mph 1026.2mb 53f 57f
3:18 11 15 mph 1026.2mb 53f 57f
3:12 14 16 mph 1026.2mb 53f 56f
3:06 14 17 mph 1026.2mb 53f 56f
3:00 15 17 mph 1026.2mb 53f 56f
2:54 14 17 mph 1026.2mb 53f 56f
2:48 15 17 mph 1026.2mb 53f 57f
2:36 14 17 mph 1026.3mb 53f 57f
2:30 14 16 mph 1026.3mb 53f 56f
2:24 14 16 mph 1026.4mb 53f 56f
2:18 14 16 mph 1026.3mb 53f 56f
2:12 14 17 mph 1026.4mb 53f 56f
2:06 14 17 mph 1026.5mb 53f 56f
2:00 14 16 mph 1026.4mb 53f 56f
1:54 14 17 mph 1026.5mb 53f 56f
1:48 13 15 mph 1026.4mb 53f 57f
1:36 13 15 mph 1026.4mb 53f 57f
1:30 14 16 mph 1026.4mb 53f 57f
1:24 14 16 mph 1026.4mb 53f 56f
1:18 11 15 mph 1026.4mb 53f 56f
1:12 13 15 mph 1026.5mb 53f 56f
1:06 13 15 mph 1026.6mb 53f 56f
1:00 11 15 mph 1026.5mb 53f 56f
12:54 13 14 mph 1026.6mb 53f 56f
12:48 10 14 mph 1026.6mb 54f 56f
12:36 7 9 mph 1026.5mb 54f 56f
12:30 7 8 mph 1026.5mb 55f 56f
12:24 7 8 mph 1026.6mb 55f 56f
12:18 6 7 mph 1026.6mb 56f 56f
12:12 7 8 mph 1026.6mb 56f 56f
12:06 7 9 mph 1026.7mb 56f 56f
12:00 6 9 mph 1026.6mb 56f 56f
11:54 6 8 mph 1026.6mb 56f 56f
11:48 6 7 mph 1026.5mb 56f 56f
11:36 6 7 mph 1026.5mb 56f 56f
11:30 6 7 mph 1026.5mb 56f 56f
11:24 5 7 mph 1026.6mb 56f 56f
11:18 6 7 mph 1026.6mb 56f 56f
11:12 7 8 mph 1026.6mb 56f 56f
11:06 6 7 mph 1026.6mb 56f 56f
11:00 6 7 mph 1026.5mb 56f 56f
10:54 5 7 mph 1026.5mb 56f 56f
10:48 5 6 mph 1026.5mb 56f 56f
10:36 6 7 mph 1026.5mb 56f 56f
10:30 6 7 mph 1026.4mb 56f 55f
10:24 6 7 mph 1026.4mb 56f 55f
10:18 6
mph
1026.4mb 56f 55f
10:12 5 6 mph 1026.4mb 56f 56f
10:06 5 7 mph 1026.4mb 56f 55f
10:00 6 7 mph 1026.4mb 56f 55f
9:54 6 7 mph 1026.5mb 56f 56f
9:48 5 6 mph 1026.5mb 56f 56f
9:36 3 6 mph 1026.4mb 56f 55f
9:30 5 6 mph 1026.4mb 56f 55f
9:24 5 6 mph 1026.4mb 56f 55f
9:18 3 5 mph 1026.3mb 56f 55f